aviador You're here:

SCFM Decoded Metar

PORVENIR in CHILE
Report Time2017-08-22 16:00:00
UTC Time2017-08-22 16:42:51
Flight Rules vfr VFR
Wind270° at 25 kt
W.Decomp.*RWY 27: 24.4 kt HW 5.6 kt LCW
RWY 21: 17.0 kt HW 18.3 kt RCW
W.Rank270° ranks 1
Current wind is above 270° avg. (14.9)
Visibility9999 m
Phenomena:N/A
Clouds:Few 020 Hf
Scattered 100 Hf
Expected CloudBase > 1,600 ft AGL from Temp-Dew spread
CeilingNone
Temp05°C (ISA -10)
Dew Point01°C (76% RH)
AAT-5.8°C
QNH0958 hPa
Density Alt919 ft
Elevation98 ft
Report Wrong Elevation
Raw Report
SCFM 221600Z 27025KT 9999 FEW020 SCT100 05/01 Q0958=

Extra information for SCFM:More info

Airport Information Weather charts Add Link Nearby Venues Social comments